sensor_id;sensor_type;location;lat;lon;timestamp;temperature;humidity
34768;DHT22;21755;43.608;1.236;2023-04-25T00:00:20;13.80;99.90
34768;DHT22;21755;43.608;1.236;2023-04-25T00:02:46;13.80;99.90
34768;DHT22;21755;43.608;1.236;2023-04-25T00:05:12;13.80;99.90
34768;DHT22;21755;43.608;1.236;2023-04-25T00:07:40;13.80;99.90
34768;DHT22;21755;43.608;1.236;2023-04-25T00:10:09;13.80;99.90
34768;DHT22;21755;43.608;1.236;2023-04-25T00:12:36;13.80;99.90
34768;DHT22;21755;43.608;1.236;2023-04-25T00:15:03;13.80;99.90
34768;DHT22;21755;43.608;1.236;2023-04-25T00:17:29;13.80;99.90
34768;DHT22;21755;43.608;1.236;2023-04-25T00:19:56;13.80;99.90
34768;DHT22;21755;43.608;1.236;2023-04-25T00:22:23;13.80;99.90
34768;DHT22;21755;43.608;1.236;2023-04-25T00:24:49;13.80;99.90
34768;DHT22;21755;43.608;1.236;2023-04-25T00:27:15;13.80;99.90
34768;DHT22;21755;43.608;1.236;2023-04-25T00:29:41;13.80;99.90
34768;DHT22;21755;43.608;1.236;2023-04-25T00:32:07;13.80;99.90
34768;DHT22;21755;43.608;1.236;2023-04-25T00:34:33;13.80;99.90
34768;DHT22;21755;43.608;1.236;2023-04-25T00:36:59;13.80;99.90
34768;DHT22;21755;43.608;1.236;2023-04-25T00:39:27;13.80;99.90
34768;DHT22;21755;43.608;1.236;2023-04-25T00:41:54;13.80;99.90
34768;DHT22;21755;43.608;1.236;2023-04-25T00:44:20;13.80;99.90
34768;DHT22;21755;43.608;1.236;2023-04-25T00:46:50;13.80;99.90
34768;DHT22;21755;43.608;1.236;2023-04-25T00:49:16;13.80;99.90
34768;DHT22;21755;43.608;1.236;2023-04-25T00:51:43;13.80;99.90
34768;DHT22;21755;43.608;1.236;2023-04-25T00:54:14;13.80;99.90
34768;DHT22;21755;43.608;1.236;2023-04-25T00:56:40;13.80;99.90
34768;DHT22;21755;43.608;1.236;2023-04-25T00:59:07;13.80;99.90
34768;DHT22;21755;43.608;1.236;2023-04-25T01:01:34;13.80;99.90
34768;DHT22;21755;43.608;1.236;2023-04-25T01:04:01;13.80;99.90
34768;DHT22;21755;43.608;1.236;2023-04-25T01:06:27;13.80;99.90
34768;DHT22;21755;43.608;1.236;2023-04-25T01:08:54;13.70;99.90
34768;DHT22;21755;43.608;1.236;2023-04-25T01:11:20;13.80;99.90
34768;DHT22;21755;43.608;1.236;2023-04-25T01:13:45;13.80;99.90
34768;DHT22;21755;43.608;1.236;2023-04-25T01:16:11;13.80;99.90
34768;DHT22;21755;43.608;1.236;2023-04-25T01:18:40;13.80;99.90
34768;DHT22;21755;43.608;1.236;2023-04-25T01:21:11;13.70;99.90
34768;DHT22;21755;43.608;1.236;2023-04-25T01:23:41;13.80;99.90
34768;DHT22;21755;43.608;1.236;2023-04-25T01:26:10;13.80;99.90
34768;DHT22;21755;43.608;1.236;2023-04-25T01:28:36;13.70;99.90
34768;DHT22;21755;43.608;1.236;2023-04-25T01:31:03;13.70;99.90
34768;DHT22;21755;43.608;1.236;2023-04-25T01:33:29;13.70;99.90
34768;DHT22;21755;43.608;1.236;2023-04-25T01:35:55;13.70;99.90
34768;DHT22;21755;43.608;1.236;2023-04-25T01:38:21;13.80;99.90
34768;DHT22;21755;43.608;1.236;2023-04-25T01:40:49;13.80;99.90
34768;DHT22;21755;43.608;1.236;2023-04-25T01:43:16;13.80;99.90
34768;DHT22;21755;43.608;1.236;2023-04-25T01:45:42;13.80;99.90
34768;DHT22;21755;43.608;1.236;2023-04-25T01:48:09;13.80;99.90
34768;DHT22;21755;43.608;1.236;2023-04-25T01:50:37;13.80;99.90
34768;DHT22;21755;43.608;1.236;2023-04-25T01:53:04;13.70;99.90
34768;DHT22;21755;43.608;1.236;2023-04-25T01:55:30;13.80;99.90
34768;DHT22;21755;43.608;1.236;2023-04-25T01:57:56;13.70;99.90
34768;DHT22;21755;43.608;1.236;2023-04-25T02:00:22;13.70;99.90
34768;DHT22;21755;43.608;1.236;2023-04-25T02:02:48;13.70;99.90
34768;DHT22;21755;43.608;1.236;2023-04-25T02:05:16;13.70;99.90
34768;DHT22;21755;43.608;1.236;2023-04-25T02:07:43;13.70;99.90
34768;DHT22;21755;43.608;1.236;2023-04-25T02:10:09;13.70;99.90
34768;DHT22;21755;43.608;1.236;2023-04-25T02:12:35;13.70;99.90
34768;DHT22;21755;43.608;1.236;2023-04-25T02:15:01;13.70;99.90
34768;DHT22;21755;43.608;1.236;2023-04-25T02:17:27;13.70;99.90
34768;DHT22;21755;43.608;1.236;2023-04-25T02:19:53;13.70;99.90
34768;DHT22;21755;43.608;1.236;2023-04-25T02:22:19;13.70;99.90
34768;DHT22;21755;43.608;1.236;2023-04-25T02:24:46;13.70;99.90
34768;DHT22;21755;43.608;1.236;2023-04-25T02:27:12;13.70;99.90
34768;DHT22;21755;43.608;1.236;2023-04-25T02:29:38;13.70;99.90
34768;DHT22;21755;43.608;1.236;2023-04-25T02:32:04;13.70;99.90
34768;DHT22;21755;43.608;1.236;2023-04-25T02:34:29;13.70;99.90
34768;DHT22;21755;43.608;1.236;2023-04-25T02:36:55;13.70;99.90
34768;DHT22;21755;43.608;1.236;2023-04-25T02:39:21;13.70;99.90
34768;DHT22;21755;43.608;1.236;2023-04-25T02:41:47;13.70;99.90
34768;DHT22;21755;43.608;1.236;2023-04-25T02:44:14;13.70;99.90
34768;DHT22;21755;43.608;1.236;2023-04-25T02:46:41;13.70;99.90
34768;DHT22;21755;43.608;1.236;2023-04-25T02:49:07;13.70;99.90
34768;DHT22;21755;43.608;1.236;2023-04-25T02:51:34;13.70;99.90
34768;DHT22;21755;43.608;1.236;2023-04-25T02:54:00;13.70;99.90
34768;DHT22;21755;43.608;1.236;2023-04-25T02:56:26;13.70;99.90
34768;DHT22;21755;43.608;1.236;2023-04-25T02:58:53;13.70;99.90
34768;DHT22;21755;43.608;1.236;2023-04-25T03:01:19;13.80;99.90
34768;DHT22;21755;43.608;1.236;2023-04-25T03:03:44;13.70;99.90
34768;DHT22;21755;43.608;1.236;2023-04-25T03:06:10;13.70;99.90
34768;DHT22;21755;43.608;1.236;2023-04-25T03:08:36;13.70;99.90
34768;DHT22;21755;43.608;1.236;2023-04-25T03:11:02;13.70;99.90
34768;DHT22;21755;43.608;1.236;2023-04-25T03:13:28;13.70;99.90
34768;DHT22;21755;43.608;1.236;2023-04-25T03:15:55;13.70;99.90
34768;DHT22;21755;43.608;1.236;2023-04-25T03:18:21;13.70;99.90
34768;DHT22;21755;43.608;1.236;2023-04-25T03:20:47;13.70;99.90
34768;DHT22;21755;43.608;1.236;2023-04-25T03:23:13;13.60;99.90
34768;DHT22;21755;43.608;1.236;2023-04-25T03:25:38;13.70;99.90
34768;DHT22;21755;43.608;1.236;2023-04-25T03:28:04;13.70;99.90
34768;DHT22;21755;43.608;1.236;2023-04-25T03:30:30;13.70;99.90
34768;DHT22;21755;43.608;1.236;2023-04-25T03:32:56;13.60;99.90
34768;DHT22;21755;43.608;1.236;2023-04-25T03:35:22;13.60;99.90
34768;DHT22;21755;43.608;1.236;2023-04-25T03:37:49;13.60;99.90
34768;DHT22;21755;43.608;1.236;2023-04-25T03:40:15;13.70;99.90
34768;DHT22;21755;43.608;1.236;2023-04-25T03:42:41;13.70;99.90
34768;DHT22;21755;43.608;1.236;2023-04-25T03:45:08;13.60;99.90
34768;DHT22;21755;43.608;1.236;2023-04-25T03:47:34;13.60;99.90
34768;DHT22;21755;43.608;1.236;2023-04-25T03:50:00;13.70;99.90
34768;DHT22;21755;43.608;1.236;2023-04-25T03:52:27;13.70;99.90
34768;DHT22;21755;43.608;1.236;2023-04-25T03:54:53;13.60;99.90
34768;DHT22;21755;43.608;1.236;2023-04-25T03:57:19;13.60;99.90
34768;DHT22;21755;43.608;1.236;2023-04-25T03:59:45;13.60;99.90
34768;DHT22;21755;43.608;1.236;2023-04-25T04:02:11;13.60;99.90
34768;DHT22;21755;43.608;1.236;2023-04-25T04:04:37;13.60;99.90
34768;DHT22;21755;43.608;1.236;2023-04-25T04:07:02;13.60;99.90
34768;DHT22;21755;43.608;1.236;2023-04-25T04:09:29;13.60;99.90
34768;DHT22;21755;43.608;1.236;2023-04-25T04:11:55;13.60;99.90
34768;DHT22;21755;43.608;1.236;2023-04-25T04:14:21;13.60;99.90
34768;DHT22;21755;43.608;1.236;2023-04-25T04:16:46;13.70;99.90
34768;DHT22;21755;43.608;1.236;2023-04-25T04:19:12;13.60;99.90
34768;DHT22;21755;43.608;1.236;2023-04-25T04:21:38;13.60;99.90
34768;DHT22;21755;43.608;1.236;2023-04-25T04:24:04;13.60;99.90
34768;DHT22;21755;43.608;1.236;2023-04-25T04:26:32;13.70;99.90
34768;DHT22;21755;43.608;1.236;2023-04-25T04:28:58;13.70;99.90
34768;DHT22;21755;43.608;1.236;2023-04-25T04:31:24;13.60;99.90
34768;DHT22;21755;43.608;1.236;2023-04-25T04:33:50;13.70;99.90
34768;DHT22;21755;43.608;1.236;2023-04-25T04:36:17;13.70;99.90
34768;DHT22;21755;43.608;1.236;2023-04-25T04:38:47;13.70;99.90
34768;DHT22;21755;43.608;1.236;2023-04-25T04:41:13;13.70;99.90
34768;DHT22;21755;43.608;1.236;2023-04-25T04:43:39;13.70;99.90
34768;DHT22;21755;43.608;1.236;2023-04-25T04:46:05;13.70;99.90
34768;DHT22;21755;43.608;1.236;2023-04-25T04:48:32;13.70;99.90
34768;DHT22;21755;43.608;1.236;2023-04-25T04:51:00;13.70;99.90
34768;DHT22;21755;43.608;1.236;2023-04-25T04:53:27;13.70;99.90
34768;DHT22;21755;43.608;1.236;2023-04-25T04:55:53;13.70;99.90
34768;DHT22;21755;43.608;1.236;2023-04-25T04:58:19;13.70;99.90
34768;DHT22;21755;43.608;1.236;2023-04-25T05:00:45;13.70;99.90
34768;DHT22;21755;43.608;1.236;2023-04-25T05:03:11;13.70;99.90
34768;DHT22;21755;43.608;1.236;2023-04-25T05:05:37;13.70;99.90
34768;DHT22;21755;43.608;1.236;2023-04-25T05:08:06;13.70;99.90
34768;DHT22;21755;43.608;1.236;2023-04-25T05:10:32;13.70;99.90
34768;DHT22;21755;43.608;1.236;2023-04-25T05:12:58;13.70;99.90
34768;DHT22;21755;43.608;1.236;2023-04-25T05:15:24;13.70;99.90
34768;DHT22;21755;43.608;1.236;2023-04-25T05:17:50;13.70;99.90
34768;DHT22;21755;43.608;1.236;2023-04-25T05:20:16;13.70;99.90
34768;DHT22;21755;43.608;1.236;2023-04-25T05:22:44;13.80;99.90
34768;DHT22;21755;43.608;1.236;2023-04-25T05:25:10;13.70;99.90
34768;DHT22;21755;43.608;1.236;2023-04-25T05:27:36;13.80;99.90
34768;DHT22;21755;43.608;1.236;2023-04-25T05:30:02;13.80;99.90
34768;DHT22;21755;43.608;1.236;2023-04-25T05:32:28;13.80;99.90
34768;DHT22;21755;43.608;1.236;2023-04-25T05:34:54;13.80;99.90
34768;DHT22;21755;43.608;1.236;2023-04-25T05:37:20;13.80;99.90
34768;DHT22;21755;43.608;1.236;2023-04-25T05:39:45;13.80;99.90
34768;DHT22;21755;43.608;1.236;2023-04-25T05:42:11;13.90;99.90
34768;DHT22;21755;43.608;1.236;2023-04-25T05:44:37;13.90;99.90
34768;DHT22;21755;43.608;1.236;2023-04-25T05:47:03;13.90;99.90
34768;DHT22;21755;43.608;1.236;2023-04-25T05:49:30;13.90;99.90
34768;DHT22;21755;43.608;1.236;2023-04-25T05:51:56;13.90;99.90
34768;DHT22;21755;43.608;1.236;2023-04-25T05:54:22;14.00;99.90
34768;DHT22;21755;43.608;1.236;2023-04-25T05:56:48;14.00;99.90
34768;DHT22;21755;43.608;1.236;2023-04-25T05:59:13;14.00;99.90
34768;DHT22;21755;43.608;1.236;2023-04-25T06:01:39;14.00;99.90
34768;DHT22;21755;43.608;1.236;2023-04-25T06:04:05;14.00;99.90
34768;DHT22;21755;43.608;1.236;2023-04-25T06:06:31;14.00;99.90
34768;DHT22;21755;43.608;1.236;2023-04-25T06:08:57;14.00;99.90
34768;DHT22;21755;43.608;1.236;2023-04-25T06:11:23;14.00;99.90
34768;DHT22;21755;43.608;1.236;2023-04-25T06:13:49;14.00;99.90
34768;DHT22;21755;43.608;1.236;2023-04-25T06:16:15;14.10;99.90
34768;DHT22;21755;43.608;1.236;2023-04-25T06:18:41;14.10;99.90
34768;DHT22;21755;43.608;1.236;2023-04-25T06:21:07;14.10;99.90
34768;DHT22;21755;43.608;1.236;2023-04-25T06:23:32;14.10;99.90
34768;DHT22;21755;43.608;1.236;2023-04-25T06:25:58;14.20;99.90
34768;DHT22;21755;43.608;1.236;2023-04-25T06:28:24;14.30;99.90
34768;DHT22;21755;43.608;1.236;2023-04-25T06:30:50;14.30;99.90
34768;DHT22;21755;43.608;1.236;2023-04-25T06:33:16;14.40;99.90
34768;DHT22;21755;43.608;1.236;2023-04-25T06:35:42;14.40;99.90
34768;DHT22;21755;43.608;1.236;2023-04-25T06:38:11;14.40;99.90
34768;DHT22;21755;43.608;1.236;2023-04-25T06:40:37;14.40;99.90
34768;DHT22;21755;43.608;1.236;2023-04-25T06:43:02;14.50;99.90
34768;DHT22;21755;43.608;1.236;2023-04-25T06:45:28;14.50;99.90
34768;DHT22;21755;43.608;1.236;2023-04-25T06:47:54;14.50;99.90
34768;DHT22;21755;43.608;1.236;2023-04-25T06:50:20;14.50;99.90
34768;DHT22;21755;43.608;1.236;2023-04-25T06:52:46;14.50;99.90
34768;DHT22;21755;43.608;1.236;2023-04-25T06:55:12;14.50;99.90
34768;DHT22;21755;43.608;1.236;2023-04-25T06:57:38;14.60;99.90
34768;DHT22;21755;43.608;1.236;2023-04-25T07:00:05;14.50;99.90
34768;DHT22;21755;43.608;1.236;2023-04-25T07:02:33;14.50;99.90
34768;DHT22;21755;43.608;1.236;2023-04-25T07:05:00;14.50;99.90
34768;DHT22;21755;43.608;1.236;2023-04-25T07:07:26;14.50;99.90
34768;DHT22;21755;43.608;1.236;2023-04-25T07:09:52;14.40;99.90
34768;DHT22;21755;43.608;1.236;2023-04-25T07:12:18;14.50;99.90
34768;DHT22;21755;43.608;1.236;2023-04-25T07:14:44;14.50;99.90
34768;DHT22;21755;43.608;1.236;2023-04-25T07:17:10;14.40;99.90
34768;DHT22;21755;43.608;1.236;2023-04-25T07:19:36;14.50;99.90
34768;DHT22;21755;43.608;1.236;2023-04-25T07:22:03;14.40;99.90
34768;DHT22;21755;43.608;1.236;2023-04-25T07:24:29;14.40;99.90
34768;DHT22;21755;43.608;1.236;2023-04-25T07:26:55;14.00;99.90
34768;DHT22;21755;43.608;1.236;2023-04-25T07:29:20;13.70;99.90
34768;DHT22;21755;43.608;1.236;2023-04-25T07:31:46;13.60;99.90
34768;DHT22;21755;43.608;1.236;2023-04-25T07:34:12;13.50;99.90
34768;DHT22;21755;43.608;1.236;2023-04-25T07:36:38;13.30;99.90
34768;DHT22;21755;43.608;1.236;2023-04-25T07:39:04;13.10;99.90
34768;DHT22;21755;43.608;1.236;2023-04-25T07:41:30;12.90;99.90
34768;DHT22;21755;43.608;1.236;2023-04-25T07:43:56;12.90;99.90
34768;DHT22;21755;43.608;1.236;2023-04-25T07:46:21;12.90;99.90
34768;DHT22;21755;43.608;1.236;2023-04-25T07:48:47;12.80;99.90
34768;DHT22;21755;43.608;1.236;2023-04-25T07:51:13;12.70;99.90
34768;DHT22;21755;43.608;1.236;2023-04-25T07:53:39;12.60;99.90
34768;DHT22;21755;43.608;1.236;2023-04-25T07:56:06;12.50;99.90
34768;DHT22;21755;43.608;1.236;2023-04-25T07:58:32;12.50;99.90
34768;DHT22;21755;43.608;1.236;2023-04-25T08:00:58;12.50;99.90
34768;DHT22;21755;43.608;1.236;2023-04-25T08:03:23;12.50;99.90
34768;DHT22;21755;43.608;1.236;2023-04-25T08:05:49;12.50;99.90
34768;DHT22;21755;43.608;1.236;2023-04-25T08:08:15;12.60;99.90
34768;DHT22;21755;43.608;1.236;2023-04-25T08:10:41;12.60;99.90
34768;DHT22;21755;43.608;1.236;2023-04-25T08:13:07;12.50;99.90
34768;DHT22;21755;43.608;1.236;2023-04-25T08:15:33;12.50;99.90
34768;DHT22;21755;43.608;1.236;2023-04-25T08:17:59;12.50;99.90
34768;DHT22;21755;43.608;1.236;2023-04-25T08:20:25;12.50;99.90
34768;DHT22;21755;43.608;1.236;2023-04-25T08:22:51;12.60;99.90
34768;DHT22;21755;43.608;1.236;2023-04-25T08:25:17;12.60;99.90
34768;DHT22;21755;43.608;1.236;2023-04-25T08:27:43;12.60;99.90
34768;DHT22;21755;43.608;1.236;2023-04-25T08:30:09;12.70;99.90
34768;DHT22;21755;43.608;1.236;2023-04-25T08:32:35;12.60;99.90
34768;DHT22;21755;43.608;1.236;2023-04-25T08:35:04;12.60;99.90
34768;DHT22;21755;43.608;1.236;2023-04-25T08:37:30;12.60;99.90
34768;DHT22;21755;43.608;1.236;2023-04-25T08:39:56;12.50;99.90
34768;DHT22;21755;43.608;1.236;2023-04-25T08:42:22;12.50;99.90
34768;DHT22;21755;43.608;1.236;2023-04-25T08:44:49;12.50;99.90
34768;DHT22;21755;43.608;1.236;2023-04-25T08:47:15;12.40;99.90
34768;DHT22;21755;43.608;1.236;2023-04-25T08:49:45;12.40;99.90
34768;DHT22;21755;43.608;1.236;2023-04-25T08:52:13;12.50;99.90
34768;DHT22;21755;43.608;1.236;2023-04-25T08:54:43;12.50;99.90
34768;DHT22;21755;43.608;1.236;2023-04-25T08:57:10;12.50;99.90
34768;DHT22;21755;43.608;1.236;2023-04-25T08:59:37;12.50;99.90
34768;DHT22;21755;43.608;1.236;2023-04-25T09:02:04;12.60;99.90
34768;DHT22;21755;43.608;1.236;2023-04-25T09:04:31;12.60;99.90
34768;DHT22;21755;43.608;1.236;2023-04-25T09:06:57;12.60;99.90
34768;DHT22;21755;43.608;1.236;2023-04-25T09:09:24;12.70;99.90
34768;DHT22;21755;43.608;1.236;2023-04-25T09:11:50;12.70;99.90
34768;DHT22;21755;43.608;1.236;2023-04-25T09:14:20;12.80;99.90
34768;DHT22;21755;43.608;1.236;2023-04-25T09:19:25;12.80;99.90
34768;DHT22;21755;43.608;1.236;2023-04-25T09:21:55;12.70;99.90
34768;DHT22;21755;43.608;1.236;2023-04-25T09:26:58;12.90;99.90
34768;DHT22;21755;43.608;1.236;2023-04-25T09:29:32;12.90;99.90
34768;DHT22;21755;43.608;1.236;2023-04-25T09:32:12;12.90;99.90
34768;DHT22;21755;43.608;1.236;2023-04-25T09:34:43;13.00;99.90
34768;DHT22;21755;43.608;1.236;2023-04-25T09:37:10;13.00;99.90
34768;DHT22;21755;43.608;1.236;2023-04-25T09:39:39;12.80;99.90
34768;DHT22;21755;43.608;1.236;2023-04-25T09:42:05;12.80;99.90
34768;DHT22;21755;43.608;1.236;2023-04-25T09:44:31;12.70;99.90
34768;DHT22;21755;43.608;1.236;2023-04-25T09:46:57;12.70;99.90
34768;DHT22;21755;43.608;1.236;2023-04-25T09:49:25;12.80;99.90
34768;DHT22;21755;43.608;1.236;2023-04-25T09:51:56;12.80;99.90
34768;DHT22;21755;43.608;1.236;2023-04-25T09:54:26;13.00;99.90
34768;DHT22;21755;43.608;1.236;2023-04-25T09:56:53;13.00;99.90
34768;DHT22;21755;43.608;1.236;2023-04-25T09:59:22;12.90;99.90
34768;DHT22;21755;43.608;1.236;2023-04-25T10:01:49;12.90;99.90
34768;DHT22;21755;43.608;1.236;2023-04-25T10:04:20;12.90;99.90
34768;DHT22;21755;43.608;1.236;2023-04-25T10:06:49;13.00;99.90
34768;DHT22;21755;43.608;1.236;2023-04-25T10:09:16;13.00;99.90
34768;DHT22;21755;43.608;1.236;2023-04-25T10:11:47;13.00;99.90
34768;DHT22;21755;43.608;1.236;2023-04-25T10:14:14;13.20;99.90
34768;DHT22;21755;43.608;1.236;2023-04-25T10:16:41;13.30;99.90
34768;DHT22;21755;43.608;1.236;2023-04-25T10:19:07;13.40;99.90
34768;DHT22;21755;43.608;1.236;2023-04-25T10:21:34;13.50;99.90
34768;DHT22;21755;43.608;1.236;2023-04-25T10:24:03;13.50;99.90
34768;DHT22;21755;43.608;1.236;2023-04-25T10:26:29;13.40;99.90
34768;DHT22;21755;43.608;1.236;2023-04-25T10:29:00;13.30;99.90
34768;DHT22;21755;43.608;1.236;2023-04-25T10:31:31;13.30;99.90
34768;DHT22;21755;43.608;1.236;2023-04-25T10:33:59;13.40;99.90
34768;DHT22;21755;43.608;1.236;2023-04-25T10:36:31;13.40;99.90
34768;DHT22;21755;43.608;1.236;2023-04-25T10:39:04;13.40;99.90
34768;DHT22;21755;43.608;1.236;2023-04-25T10:41:54;13.40;99.90
34768;DHT22;21755;43.608;1.236;2023-04-25T10:44:20;13.40;99.90
34768;DHT22;21755;43.608;1.236;2023-04-25T10:46:46;13.40;99.90
34768;DHT22;21755;43.608;1.236;2023-04-25T10:52:17;13.40;99.90
34768;DHT22;21755;43.608;1.236;2023-04-25T10:54:51;13.40;99.90
34768;DHT22;21755;43.608;1.236;2023-04-25T10:57:31;13.50;99.90
34768;DHT22;21755;43.608;1.236;2023-04-25T11:00:17;13.50;99.90
34768;DHT22;21755;43.608;1.236;2023-04-25T11:02:57;13.60;99.90
34768;DHT22;21755;43.608;1.236;2023-04-25T11:05:36;13.50;99.90
34768;DHT22;21755;43.608;1.236;2023-04-25T11:08:03;13.50;99.90
34768;DHT22;21755;43.608;1.236;2023-04-25T11:10:36;13.50;99.90
34768;DHT22;21755;43.608;1.236;2023-04-25T11:13:02;13.40;99.90
34768;DHT22;21755;43.608;1.236;2023-04-25T11:15:28;13.50;99.90
34768;DHT22;21755;43.608;1.236;2023-04-25T11:17:55;13.60;99.90
34768;DHT22;21755;43.608;1.236;2023-04-25T11:20:22;13.70;99.90
34768;DHT22;21755;43.608;1.236;2023-04-25T11:22:51;13.60;99.90
34768;DHT22;21755;43.608;1.236;2023-04-25T11:25:17;13.70;99.90
34768;DHT22;21755;43.608;1.236;2023-04-25T11:27:52;13.70;99.90
34768;DHT22;21755;43.608;1.236;2023-04-25T11:30:19;13.70;99.90
34768;DHT22;21755;43.608;1.236;2023-04-25T11:32:46;13.80;99.90
34768;DHT22;21755;43.608;1.236;2023-04-25T11:35:12;13.80;99.90
34768;DHT22;21755;43.608;1.236;2023-04-25T11:37:42;13.90;99.90
34768;DHT22;21755;43.608;1.236;2023-04-25T11:40:09;13.90;99.90
34768;DHT22;21755;43.608;1.236;2023-04-25T11:42:39;14.00;99.90
34768;DHT22;21755;43.608;1.236;2023-04-25T11:45:09;14.10;99.90
34768;DHT22;21755;43.608;1.236;2023-04-25T11:47:35;14.10;99.90
34768;DHT22;21755;43.608;1.236;2023-04-25T11:50:05;14.20;99.90
34768;DHT22;21755;43.608;1.236;2023-04-25T11:52:42;14.20;99.90
34768;DHT22;21755;43.608;1.236;2023-04-25T11:55:14;14.30;99.90
34768;DHT22;21755;43.608;1.236;2023-04-25T11:57:41;14.30;99.90
34768;DHT22;21755;43.608;1.236;2023-04-25T12:00:09;14.30;99.90
34768;DHT22;21755;43.608;1.236;2023-04-25T12:02:37;14.40;99.90
34768;DHT22;21755;43.608;1.236;2023-04-25T12:05:07;14.40;99.90
34768;DHT22;21755;43.608;1.236;2023-04-25T12:07:36;14.40;99.90
34768;DHT22;21755;43.608;1.236;2023-04-25T12:10:11;14.40;99.90
34768;DHT22;21755;43.608;1.236;2023-04-25T12:12:40;14.50;99.90
34768;DHT22;21755;43.608;1.236;2023-04-25T12:15:24;14.40;99.90
34768;DHT22;21755;43.608;1.236;2023-04-25T12:17:50;14.40;99.90
34768;DHT22;21755;43.608;1.236;2023-04-25T12:20:18;14.40;99.90
34768;DHT22;21755;43.608;1.236;2023-04-25T12:22:46;14.40;99.90
34768;DHT22;21755;43.608;1.236;2023-04-25T12:28:17;14.60;99.90
34768;DHT22;21755;43.608;1.236;2023-04-25T12:31:04;14.50;99.90
34768;DHT22;21755;43.608;1.236;2023-04-25T12:33:34;14.60;99.90
34768;DHT22;21755;43.608;1.236;2023-04-25T12:36:02;14.60;99.90
34768;DHT22;21755;43.608;1.236;2023-04-25T12:38:42;14.60;99.90
34768;DHT22;21755;43.608;1.236;2023-04-25T12:41:09;14.60;99.90
34768;DHT22;21755;43.608;1.236;2023-04-25T12:43:34;14.50;99.90
34768;DHT22;21755;43.608;1.236;2023-04-25T12:46:01;14.60;99.90
34768;DHT22;21755;43.608;1.236;2023-04-25T12:48:26;14.60;99.90
34768;DHT22;21755;43.608;1.236;2023-04-25T12:50:52;14.70;99.90
34768;DHT22;21755;43.608;1.236;2023-04-25T12:53:23;14.60;99.90
34768;DHT22;21755;43.608;1.236;2023-04-25T12:55:51;14.70;99.90
34768;DHT22;21755;43.608;1.236;2023-04-25T12:58:18;14.60;99.90
34768;DHT22;21755;43.608;1.236;2023-04-25T13:00:45;14.60;99.90
34768;DHT22;21755;43.608;1.236;2023-04-25T13:03:11;14.70;99.90
34768;DHT22;21755;43.608;1.236;2023-04-25T13:05:38;14.70;99.90
34768;DHT22;21755;43.608;1.236;2023-04-25T13:08:04;14.70;99.90
34768;DHT22;21755;43.608;1.236;2023-04-25T13:10:30;14.60;99.90
34768;DHT22;21755;43.608;1.236;2023-04-25T13:12:56;14.50;99.90
34768;DHT22;21755;43.608;1.236;2023-04-25T13:15:22;14.50;99.90
34768;DHT22;21755;43.608;1.236;2023-04-25T13:17:48;14.50;99.90
34768;DHT22;21755;43.608;1.236;2023-04-25T13:20:14;14.50;99.90
34768;DHT22;21755;43.608;1.236;2023-04-25T13:22:42;14.40;99.90
34768;DHT22;21755;43.608;1.236;2023-04-25T13:25:08;14.30;99.90
34768;DHT22;21755;43.608;1.236;2023-04-25T13:27:36;14.40;99.90
34768;DHT22;21755;43.608;1.236;2023-04-25T13:30:03;14.50;99.90
34768;DHT22;21755;43.608;1.236;2023-04-25T13:32:36;14.70;99.90
34768;DHT22;21755;43.608;1.236;2023-04-25T13:35:07;15.00;99.90
34768;DHT22;21755;43.608;1.236;2023-04-25T13:37:34;15.00;99.90
34768;DHT22;21755;43.608;1.236;2023-04-25T13:40:02;14.80;99.90
34768;DHT22;21755;43.608;1.236;2023-04-25T13:42:30;14.90;99.90
34768;DHT22;21755;43.608;1.236;2023-04-25T13:44:56;15.10;99.90
34768;DHT22;21755;43.608;1.236;2023-04-25T13:47:22;14.90;99.90
34768;DHT22;21755;43.608;1.236;2023-04-25T13:49:49;15.00;99.90
34768;DHT22;21755;43.608;1.236;2023-04-25T13:52:15;15.10;99.90
34768;DHT22;21755;43.608;1.236;2023-04-25T13:54:41;14.80;99.90
34768;DHT22;21755;43.608;1.236;2023-04-25T13:57:07;14.70;99.90
34768;DHT22;21755;43.608;1.236;2023-04-25T13:59:33;14.70;99.90
34768;DHT22;21755;43.608;1.236;2023-04-25T14:01:59;14.70;99.90
34768;DHT22;21755;43.608;1.236;2023-04-25T14:04:25;14.60;99.90
34768;DHT22;21755;43.608;1.236;2023-04-25T14:06:51;14.60;99.90
34768;DHT22;21755;43.608;1.236;2023-04-25T14:09:19;14.70;99.90
34768;DHT22;21755;43.608;1.236;2023-04-25T14:11:46;14.60;99.90
34768;DHT22;21755;43.608;1.236;2023-04-25T14:14:12;14.70;99.90
34768;DHT22;21755;43.608;1.236;2023-04-25T14:16:41;14.80;99.90
34768;DHT22;21755;43.608;1.236;2023-04-25T14:19:07;14.80;99.90
34768;DHT22;21755;43.608;1.236;2023-04-25T14:21:32;14.90;99.90
34768;DHT22;21755;43.608;1.236;2023-04-25T14:23:58;15.00;99.90
34768;DHT22;21755;43.608;1.236;2023-04-25T14:26:24;14.90;99.90
34768;DHT22;21755;43.608;1.236;2023-04-25T14:28:51;14.80;99.90
34768;DHT22;21755;43.608;1.236;2023-04-25T14:31:18;14.70;99.90
34768;DHT22;21755;43.608;1.236;2023-04-25T14:33:43;14.70;99.90
34768;DHT22;21755;43.608;1.236;2023-04-25T14:36:10;14.90;99.90
34768;DHT22;21755;43.608;1.236;2023-04-25T14:38:36;15.00;99.90
34768;DHT22;21755;43.608;1.236;2023-04-25T14:41:03;15.10;99.90
34768;DHT22;21755;43.608;1.236;2023-04-25T14:43:29;15.10;99.90
34768;DHT22;21755;43.608;1.236;2023-04-25T14:45:55;15.00;99.90
34768;DHT22;21755;43.608;1.236;2023-04-25T14:48:21;14.90;99.90
34768;DHT22;21755;43.608;1.236;2023-04-25T14:50:47;14.80;99.90
34768;DHT22;21755;43.608;1.236;2023-04-25T14:53:13;14.70;99.90
34768;DHT22;21755;43.608;1.236;2023-04-25T14:55:39;14.70;99.90
34768;DHT22;21755;43.608;1.236;2023-04-25T14:58:06;14.80;99.90
34768;DHT22;21755;43.608;1.236;2023-04-25T15:00:32;14.80;99.90
34768;DHT22;21755;43.608;1.236;2023-04-25T15:02:59;14.80;99.90
34768;DHT22;21755;43.608;1.236;2023-04-25T15:05:25;14.80;99.90
34768;DHT22;21755;43.608;1.236;2023-04-25T15:07:51;14.90;99.90
34768;DHT22;21755;43.608;1.236;2023-04-25T15:10:17;14.90;99.90
34768;DHT22;21755;43.608;1.236;2023-04-25T15:12:44;15.00;99.90
34768;DHT22;21755;43.608;1.236;2023-04-25T15:15:10;14.90;99.90
34768;DHT22;21755;43.608;1.236;2023-04-25T15:17:41;14.90;99.90
34768;DHT22;21755;43.608;1.236;2023-04-25T15:20:13;14.70;99.90
34768;DHT22;21755;43.608;1.236;2023-04-25T15:22:43;14.60;99.90
34768;DHT22;21755;43.608;1.236;2023-04-25T15:25:11;14.60;99.90
34768;DHT22;21755;43.608;1.236;2023-04-25T15:27:38;14.50;99.90
34768;DHT22;21755;43.608;1.236;2023-04-25T15:30:10;14.50;99.90
34768;DHT22;21755;43.608;1.236;2023-04-25T15:32:41;14.50;99.90
34768;DHT22;21755;43.608;1.236;2023-04-25T15:35:08;14.40;99.90
34768;DHT22;21755;43.608;1.236;2023-04-25T15:37:34;14.40;99.90
34768;DHT22;21755;43.608;1.236;2023-04-25T15:40:11;14.40;99.90